Carlstadt, New Jersey
Current Conditions -  °F | °C
As of 3:51 PM on Friday 31 Oct 2014 (Local Time) from KTEB Reporting Station
Overcast Overcast  
Wind Chill: 55°   Ceiling: 6000
Heat Index: 55°   Visibility: 10mi
Dew Point: 36°   Wind: 5mph
Humidity: 49%   Direction: 30°NNE
Pressure: 29.89"   Gusts: NA
Location:  40.84°N, 74.09°W
Report Text: KTEB 311951Z 03004KT 10SM SCT048 OVC060 13/02 A2989 RMK AO2 SLP122 T01280022
Loading
Personal Weather Stations






























Interactive Weather Map
Tropical Storm Tracking
New forecast layout! Learn more

10-Day Weather Forecast

Advertisements
Track Severe Weather on mobile